createdAt,value
2023-01-09T00:00:12.729Z,88.32
2023-01-09T00:03:27.747Z,88.58
2023-01-09T00:06:29.678Z,87.94
2023-01-09T00:09:44.680Z,88.01
2023-01-09T00:12:46.516Z,87.94
2023-01-09T00:16:01.722Z,87.94
2023-01-09T00:19:03.541Z,87.53
2023-01-09T00:22:18.692Z,87.08
2023-01-09T00:25:20.577Z,86.81
2023-01-09T00:28:42.733Z,87.10
2023-01-09T00:31:50.716Z,86.72
2023-01-09T00:34:59.384Z,86.67
2023-01-09T00:38:07.758Z,86.29
2023-01-09T00:41:23.159Z,86.17
2023-01-09T00:44:41.766Z,86.31
2023-01-09T00:47:52.540Z,85.87
2023-01-09T00:51:05.768Z,85.76
2023-01-09T00:54:17.724Z,85.50
2023-01-09T00:57:25.833Z,85.54
2023-01-09T01:00:40.734Z,85.38
2023-01-09T01:03:52.923Z,85.59
2023-01-09T01:07:01.421Z,85.12
2023-01-09T01:10:12.762Z,84.91
2023-01-09T01:13:27.731Z,84.77
2023-01-09T01:16:29.633Z,84.85
2023-01-09T01:19:45.750Z,84.57
2023-01-09T01:22:48.046Z,84.48
2023-01-09T01:26:02.776Z,84.08
2023-01-09T01:29:11.128Z,84.06
2023-01-09T01:32:25.744Z,84.21
2023-01-09T01:35:27.628Z,84.19
2023-01-09T01:38:43.767Z,83.46
2023-01-09T01:41:45.752Z,83.59
2023-01-09T01:45:15.786Z,82.73
2023-01-09T01:48:24.452Z,82.27
2023-01-09T01:51:43.756Z,82.06
2023-01-09T01:54:46.358Z,82.02
2023-01-09T01:58:05.816Z,82.22
2023-01-09T02:01:14.978Z,82.13
2023-01-09T02:04:23.593Z,81.99
2023-01-09T02:07:31.806Z,81.99
2023-01-09T02:10:48.028Z,82.04
2023-01-09T02:13:50.109Z,81.26
2023-01-09T02:17:21.805Z,82.36
2023-01-09T02:20:43.789Z,81.74
2023-01-09T02:24:08.662Z,81.58
2023-01-09T02:27:41.785Z,82.47
2023-01-09T02:31:00.563Z,81.61
2023-01-09T02:34:26.792Z,82.06
2023-01-09T02:37:51.655Z,82.08
2023-01-09T02:41:20.805Z,82.55
2023-01-09T02:44:38.771Z,82.60
2023-01-09T02:47:44.595Z,83.11
2023-01-09T02:51:13.806Z,82.77
2023-01-09T02:54:31.807Z,82.88
2023-01-09T02:58:03.217Z,82.52
2023-01-09T03:01:30.889Z,82.59
2023-01-09T03:04:57.866Z,82.44
2023-01-09T03:08:10.800Z,84.20
2023-01-09T03:11:25.778Z,83.04
2023-01-09T03:14:37.868Z,82.88
2023-01-09T03:17:50.552Z,83.32
2023-01-09T03:21:00.816Z,82.92
2023-01-09T03:24:10.100Z,82.37
2023-01-09T03:27:18.837Z,83.10
2023-01-09T03:30:35.884Z,82.81
2023-01-09T03:33:37.816Z,82.40
2023-01-09T03:36:52.931Z,82.28
2023-01-09T03:39:54.736Z,82.23
2023-01-09T03:43:10.812Z,82.17
2023-01-09T03:46:12.719Z,81.66
2023-01-09T03:49:27.846Z,81.61
2023-01-09T03:52:29.757Z,81.68
2023-01-09T03:55:45.849Z,81.26
2023-01-09T03:58:47.691Z,81.34
2023-01-09T04:02:04.265Z,81.68
2023-01-09T04:05:12.888Z,81.11
2023-01-09T04:08:21.946Z,80.90
2023-01-09T04:11:36.846Z,81.35
2023-01-09T04:14:38.623Z,81.42
2023-01-09T04:17:53.857Z,81.03
2023-01-09T04:20:55.796Z,81.06
2023-01-09T04:24:11.932Z,80.66
2023-01-09T04:27:13.733Z,80.64
2023-01-09T04:30:35.930Z,80.41
2023-01-09T04:33:44.457Z,80.39
2023-01-09T04:36:52.856Z,80.02
2023-01-09T04:40:01.730Z,80.42
2023-01-09T04:43:09.914Z,81.48
2023-01-09T04:46:18.565Z,81.24
2023-01-09T04:49:27.865Z,81.60
2023-01-09T04:52:42.864Z,82.40
2023-01-09T04:55:51.892Z,83.28
2023-01-09T04:59:00.501Z,83.07
2023-01-09T05:02:09.001Z,82.74
2023-01-09T05:05:17.638Z,83.36
2023-01-09T05:08:25.862Z,82.76
2023-01-09T05:11:40.861Z,83.08
2023-01-09T05:14:49.492Z,83.29
2023-01-09T05:17:57.907Z,82.52
2023-01-09T05:21:06.558Z,83.50
2023-01-09T05:24:14.925Z,82.97
2023-01-09T05:27:29.876Z,81.60
2023-01-09T05:30:44.905Z,81.64
2023-01-09T05:34:00.898Z,82.14
2023-01-09T05:37:15.900Z,82.82
2023-01-09T05:40:18.045Z,83.25
2023-01-09T05:43:32.924Z,82.18
2023-01-09T05:46:34.732Z,81.92
2023-01-09T05:49:49.884Z,82.87
2023-01-09T05:52:51.796Z,82.21
2023-01-09T05:56:06.912Z,81.65
2023-01-09T05:59:09.028Z,81.76
2023-01-09T06:02:24.079Z,81.75
2023-01-09T06:05:25.940Z,82.30
2023-01-09T06:08:40.933Z,82.79
2023-01-09T06:11:48.894Z,82.88
2023-01-09T06:15:04.024Z,81.80
2023-01-09T06:18:12.956Z,82.10
2023-01-09T06:21:27.962Z,81.79
2023-01-09T06:24:29.919Z,81.39
2023-01-09T06:27:44.960Z,80.83
2023-01-09T06:30:53.387Z,80.69
2023-01-09T06:34:07.930Z,80.29
2023-01-09T06:37:10.525Z,80.05
2023-01-09T06:40:25.028Z,80.35
2023-01-09T06:43:27.155Z,79.27
2023-01-09T06:46:42.054Z,79.74
2023-01-09T06:49:49.903Z,80.07
2023-01-09T06:53:04.967Z,80.96
2023-01-09T06:56:06.968Z,80.59
2023-01-09T06:59:22.015Z,80.65
2023-01-09T07:02:24.599Z,81.50
2023-01-09T07:05:46.066Z,81.00
2023-01-09T07:08:48.095Z,81.32
2023-01-09T07:12:03.059Z,81.22
2023-01-09T07:15:05.725Z,81.13
2023-01-09T07:18:20.344Z,83.71
2023-01-09T07:21:22.416Z,81.56
2023-01-09T07:24:36.956Z,81.01
2023-01-09T07:27:44.993Z,80.25
2023-01-09T07:30:53.741Z,81.05
2023-01-09T07:34:02.986Z,81.34
2023-01-09T07:37:20.691Z,82.49
2023-01-09T07:40:40.736Z,81.17
2023-01-09T07:43:53.587Z,79.59
2023-01-09T07:47:04.996Z,80.68
2023-01-09T07:50:19.851Z,81.99
2023-01-09T07:53:29.021Z,81.47
2023-01-09T07:56:52.025Z,82.09
2023-01-09T08:00:02.053Z,80.62
2023-01-09T08:03:13.656Z,81.66
2023-01-09T08:06:22.025Z,81.53
2023-01-09T08:09:37.169Z,82.26
2023-01-09T08:12:53.053Z,82.88
2023-01-09T08:16:08.135Z,82.55
2023-01-09T08:19:10.228Z,82.47
2023-01-09T08:22:25.104Z,83.08
2023-01-09T08:25:30.094Z,83.23
2023-01-09T08:28:52.013Z,83.83
2023-01-09T08:31:54.214Z,84.26
2023-01-09T08:35:09.026Z,85.47
2023-01-09T08:38:10.982Z,85.27
2023-01-09T08:41:26.044Z,86.91
2023-01-09T08:44:34.732Z,85.76
2023-01-09T08:47:43.055Z,87.00
2023-01-09T08:50:58.068Z,87.21
2023-01-09T08:54:00.267Z,88.29
2023-01-09T08:57:15.127Z,87.70
2023-01-09T09:00:19.201Z,88.30
2023-01-09T09:03:34.279Z,89.64
2023-01-09T09:06:49.076Z,89.44
2023-01-09T09:09:58.044Z,89.78
2023-01-09T09:13:13.047Z,90.50
2023-01-09T09:16:14.966Z,89.62
2023-01-09T09:19:30.980Z,89.92
2023-01-09T09:22:33.280Z,89.96
2023-01-09T09:25:48.145Z,90.58
2023-01-09T09:29:01.393Z,90.48
2023-01-09T09:32:09.969Z,89.43
2023-01-09T09:35:20.205Z,90.45
2023-01-09T09:38:32.296Z,90.20
2023-01-09T09:42:10.024Z,89.49
2023-01-09T09:45:39.226Z,89.77
2023-01-09T09:49:02.058Z,91.27
2023-01-09T09:52:39.049Z,93.02
2023-01-09T09:55:48.095Z,93.39
2023-01-09T09:59:02.111Z,93.70
2023-01-09T10:02:33.184Z,93.52
2023-01-09T10:05:45.078Z,94.42
2023-01-09T10:09:04.373Z,95.45
2023-01-09T10:12:31.033Z,95.10
2023-01-09T10:16:11.078Z,95.29
2023-01-09T10:19:37.607Z,95.21
2023-01-09T10:23:07.072Z,95.76
2023-01-09T10:26:44.102Z,95.16
2023-01-09T10:30:29.222Z,96.24
2023-01-09T10:34:01.064Z,97.34
2023-01-09T10:37:25.117Z,96.80
2023-01-09T10:40:39.152Z,97.46
2023-01-09T10:44:01.250Z,97.46
2023-01-09T10:47:16.129Z,96.94
2023-01-09T10:50:37.110Z,97.33
2023-01-09T10:53:50.094Z,97.73
2023-01-09T10:57:18.053Z,97.56
2023-01-09T11:00:34.185Z,97.35
2023-01-09T11:03:43.166Z,97.71
2023-01-09T11:07:18.087Z,98.39
2023-01-09T11:10:22.341Z,98.57
2023-01-09T11:13:39.069Z,99.07
2023-01-09T11:17:00.119Z,98.67
2023-01-09T11:20:13.695Z,98.01
2023-01-09T11:23:33.179Z,98.69
2023-01-09T11:26:38.034Z,98.83
2023-01-09T11:30:15.117Z,98.96
2023-01-09T11:33:34.399Z,99.01
2023-01-09T11:36:36.507Z,99.07
2023-01-09T11:39:53.155Z,98.80
2023-01-09T11:43:04.525Z,95.30
2023-01-09T11:46:40.259Z,92.75
2023-01-09T11:49:55.140Z,91.78
2023-01-09T11:53:15.018Z,92.06
2023-01-09T11:56:25.169Z,93.24
2023-01-09T11:59:33.900Z,93.89
2023-01-09T12:03:06.225Z,95.16
2023-01-09T12:06:54.675Z,96.05
2023-01-09T12:10:20.165Z,97.04
2023-01-09T12:14:04.128Z,97.16
2023-01-09T12:17:37.620Z,97.92
2023-01-09T12:21:14.224Z,98.61
2023-01-09T12:24:48.122Z,98.46
2023-01-09T12:28:33.232Z,97.95
2023-01-09T12:32:03.199Z,97.92
2023-01-09T12:35:24.036Z,98.08
2023-01-09T12:38:54.162Z,98.81
2023-01-09T12:42:23.786Z,98.80
2023-01-09T12:45:48.237Z,99.06
2023-01-09T12:49:23.114Z,99.13
2023-01-09T12:52:31.424Z,98.93
2023-01-09T12:55:52.205Z,99.62
2023-01-09T12:59:09.951Z,99.23
2023-01-09T13:02:34.254Z,100.00
2023-01-09T13:05:42.729Z,99.51
2023-01-09T13:09:18.273Z,99.86
2023-01-09T13:12:23.302Z,100.00
2023-01-09T13:15:46.128Z,100.00
2023-01-09T13:18:55.896Z,100.00
2023-01-09T13:22:14.484Z,100.00
2023-01-09T13:25:45.217Z,100.00
2023-01-09T13:29:05.460Z,100.00
2023-01-09T13:32:33.801Z,100.00
2023-01-09T13:35:55.136Z,100.00
2023-01-09T13:39:05.352Z,100.00
2023-01-09T13:42:25.188Z,100.00
2023-01-09T13:45:42.407Z,100.00
2023-01-09T13:48:51.403Z,100.00
2023-01-09T13:52:11.217Z,100.00
2023-01-09T13:55:26.338Z,100.00
2023-01-09T13:58:37.212Z,99.99
2023-01-09T14:01:46.199Z,100.00
2023-01-09T14:04:54.181Z,100.00
2023-01-09T14:08:11.801Z,100.00
2023-01-09T14:11:29.229Z,100.00
2023-01-09T14:14:40.262Z,100.00
2023-01-09T14:17:48.965Z,100.00
2023-01-09T14:21:04.156Z,100.00
2023-01-09T14:24:25.090Z,100.00
2023-01-09T14:28:10.248Z,100.00
2023-01-09T14:31:30.492Z,100.00
2023-01-09T14:34:48.158Z,100.00
2023-01-09T14:38:05.076Z,100.00
2023-01-09T14:41:26.171Z,100.00
2023-01-09T14:45:04.356Z,100.00
2023-01-09T14:48:12.244Z,100.00
2023-01-09T14:51:29.196Z,100.00
2023-01-09T14:54:40.639Z,100.00
2023-01-09T14:57:55.217Z,100.00
2023-01-09T15:01:08.160Z,100.00
2023-01-09T15:04:29.640Z,100.00
2023-01-09T15:07:41.271Z,100.00
2023-01-09T15:10:59.240Z,100.00
2023-01-09T15:14:02.768Z,100.00
2023-01-09T15:17:41.289Z,100.00
2023-01-09T15:20:43.329Z,100.00
2023-01-09T15:23:59.245Z,100.00
2023-01-09T15:27:10.763Z,100.00
2023-01-09T15:30:35.268Z,100.00
2023-01-09T15:33:40.000Z,100.00
2023-01-09T15:36:57.242Z,98.49
2023-01-09T15:40:15.217Z,93.38
2023-01-09T15:43:17.985Z,93.55
2023-01-09T15:46:33.480Z,94.68
2023-01-09T15:49:42.380Z,96.02
2023-01-09T15:52:54.066Z,97.43
2023-01-09T15:56:21.243Z,97.95
2023-01-09T15:59:29.928Z,98.46
2023-01-09T16:02:38.252Z,98.70
2023-01-09T16:05:58.192Z,92.82
2023-01-09T16:09:00.931Z,89.51
2023-01-09T16:12:26.336Z,89.85
2023-01-09T16:15:34.698Z,90.58
2023-01-09T16:18:58.297Z,91.78
2023-01-09T16:22:29.544Z,89.04
2023-01-09T16:25:40.545Z,91.62
2023-01-09T16:28:55.268Z,90.59
2023-01-09T16:31:59.893Z,92.66
2023-01-09T16:35:23.272Z,94.41
2023-01-09T16:38:32.212Z,96.28
2023-01-09T16:41:43.050Z,97.01
2023-01-09T16:44:51.285Z,98.50
2023-01-09T16:48:01.880Z,98.69
2023-01-09T16:51:21.279Z,98.43
2023-01-09T16:54:23.212Z,98.63
2023-01-09T16:57:40.280Z,98.24
2023-01-09T17:00:49.325Z,98.87
2023-01-09T17:04:04.344Z,96.59
2023-01-09T17:07:14.617Z,96.11
2023-01-09T17:10:27.280Z,96.96
2023-01-09T17:13:42.313Z,99.23
2023-01-09T17:16:57.330Z,99.31
2023-01-09T17:19:59.331Z,95.68
2023-01-09T17:23:14.339Z,91.50
2023-01-09T17:26:19.597Z,88.15
2023-01-09T17:29:36.363Z,88.18
2023-01-09T17:32:44.297Z,91.25
2023-01-09T17:36:00.291Z,93.49
2023-01-09T17:39:02.535Z,96.75
2023-01-09T17:42:17.261Z,97.81
2023-01-09T17:45:26.326Z,99.12
2023-01-09T17:48:44.221Z,100.00
2023-01-09T17:51:52.280Z,100.00
2023-01-09T17:55:07.322Z,100.00
2023-01-09T17:58:32.314Z,100.00
2023-01-09T18:01:34.152Z,100.00
2023-01-09T18:04:49.312Z,100.00
2023-01-09T18:07:51.547Z,100.00
2023-01-09T18:11:11.304Z,100.00
2023-01-09T18:14:13.985Z,100.00
2023-01-09T18:17:28.337Z,100.00
2023-01-09T18:20:40.923Z,100.00
2023-01-09T18:23:51.342Z,100.00
2023-01-09T18:27:00.281Z,100.00
2023-01-09T18:30:16.318Z,100.00
2023-01-09T18:33:24.959Z,100.00
2023-01-09T18:36:35.339Z,100.00
2023-01-09T18:39:51.309Z,100.00
2023-01-09T18:43:00.460Z,100.00
2023-01-09T18:46:09.290Z,100.00
2023-01-09T18:49:18.315Z,100.00
2023-01-09T18:52:27.094Z,100.00
2023-01-09T18:55:35.341Z,100.00
2023-01-09T18:58:48.767Z,100.00
2023-01-09T19:01:57.380Z,100.00
2023-01-09T19:05:13.358Z,100.00
2023-01-09T19:08:15.297Z,100.00
2023-01-09T19:11:33.371Z,100.00
2023-01-09T19:14:35.320Z,100.00
2023-01-09T19:17:50.367Z,100.00
2023-01-09T19:20:54.177Z,100.00
2023-01-09T19:24:10.349Z,100.00
2023-01-09T19:27:12.154Z,100.00
2023-01-09T19:30:34.386Z,100.00
2023-01-09T19:33:44.412Z,100.00
2023-01-09T19:36:59.370Z,100.00
2023-01-09T19:40:07.313Z,100.00
2023-01-09T19:43:16.087Z,100.00
2023-01-09T19:46:27.444Z,100.00
2023-01-09T19:49:36.046Z,100.00
2023-01-09T19:52:46.398Z,100.00
2023-01-09T19:55:55.235Z,100.00
2023-01-09T19:59:07.346Z,100.00
2023-01-09T20:02:22.506Z,100.00
2023-01-09T20:05:25.082Z,100.00
2023-01-09T20:08:40.403Z,100.00
2023-01-09T20:11:43.112Z,100.00
2023-01-09T20:14:57.413Z,100.00
2023-01-09T20:18:05.352Z,100.00
2023-01-09T20:21:25.362Z,100.00
2023-01-09T20:24:34.364Z,100.00
2023-01-09T20:27:42.962Z,100.00
2023-01-09T20:31:04.348Z,100.00
2023-01-09T20:34:12.390Z,100.00
2023-01-09T20:37:21.182Z,100.00
2023-01-09T20:40:29.373Z,100.00
2023-01-09T20:43:38.633Z,100.00
2023-01-09T20:46:50.381Z,100.00
2023-01-09T20:49:59.031Z,100.00
2023-01-09T20:53:07.983Z,100.00
2023-01-09T20:56:16.030Z,100.00
2023-01-09T20:59:26.386Z,100.00
2023-01-09T21:02:35.417Z,100.00
2023-01-09T21:05:47.428Z,100.00
2023-01-09T21:08:56.224Z,100.00
2023-01-09T21:12:04.407Z,100.00
2023-01-09T21:15:13.110Z,100.00
2023-01-09T21:18:21.396Z,100.00
2023-01-09T21:21:30.070Z,100.00
2023-01-09T21:24:38.405Z,100.00
2023-01-09T21:28:00.412Z,100.00
2023-01-09T21:31:15.443Z,100.00
2023-01-09T21:34:24.117Z,100.00
2023-01-09T21:37:34.384Z,100.00
2023-01-09T21:40:43.055Z,100.00
2023-01-09T21:43:51.409Z,100.00
2023-01-09T21:47:01.056Z,100.00
2023-01-09T21:50:09.410Z,100.00
2023-01-09T21:53:18.261Z,100.00
2023-01-09T21:56:33.406Z,100.00
2023-01-09T21:59:41.445Z,100.00
2023-01-09T22:02:57.487Z,100.00
2023-01-09T22:06:03.693Z,100.00
2023-01-09T22:09:19.413Z,100.00
2023-01-09T22:12:22.027Z,100.00
2023-01-09T22:15:36.435Z,100.00
2023-01-09T22:18:38.297Z,100.00
2023-01-09T22:21:54.467Z,100.00
2023-01-09T22:24:56.329Z,100.00
2023-01-09T22:28:12.422Z,100.00
2023-01-09T22:31:27.728Z,100.00
2023-01-09T22:34:36.461Z,100.00
2023-01-09T22:37:51.488Z,100.00
2023-01-09T22:40:53.257Z,100.00
2023-01-09T22:44:08.437Z,100.00
2023-01-09T22:47:10.264Z,100.00
2023-01-09T22:50:25.445Z,100.00
2023-01-09T22:53:34.461Z,100.00
2023-01-09T22:56:42.445Z,100.00
2023-01-09T22:59:57.462Z,100.00
2023-01-09T23:03:05.454Z,100.00
2023-01-09T23:06:23.430Z,100.00
2023-01-09T23:09:32.469Z,100.00
2023-01-09T23:12:40.992Z,100.00
2023-01-09T23:15:49.555Z,100.00
2023-01-09T23:19:04.467Z,100.00
2023-01-09T23:22:06.935Z,100.00
2023-01-09T23:25:21.455Z,100.00
2023-01-09T23:28:24.352Z,100.00
2023-01-09T23:31:46.474Z,100.00
2023-01-09T23:34:49.337Z,100.00
2023-01-09T23:38:04.487Z,100.00
2023-01-09T23:41:06.289Z,100.00
2023-01-09T23:44:21.502Z,100.00
2023-01-09T23:47:23.568Z,100.00
2023-01-09T23:50:38.463Z,100.00
2023-01-09T23:53:40.244Z,100.00
2023-01-09T23:56:54.441Z,100.00
2023-01-09T23:59:56.234Z,100.00
